sensor_id;sensor_type;location;lat;lon;timestamp;P1;durP1;ratioP1;P2;durP2;ratioP2
20181;SDS011;10250;50.756;6.172;2023-11-21T00:01:57;20.80;;;7.60;;
20181;SDS011;10250;50.756;6.172;2023-11-21T00:03:58;24.47;;;8.60;;
20181;SDS011;10250;50.756;6.172;2023-11-21T00:05:59;21.83;;;8.37;;
20181;SDS011;10250;50.756;6.172;2023-11-21T00:08:00;22.33;;;8.20;;
20181;SDS011;10250;50.756;6.172;2023-11-21T00:10:01;21.70;;;8.13;;
20181;SDS011;10250;50.756;6.172;2023-11-21T00:12:02;23.53;;;8.57;;
20181;SDS011;10250;50.756;6.172;2023-11-21T00:14:03;23.47;;;8.40;;
20181;SDS011;10250;50.756;6.172;2023-11-21T00:16:04;23.83;;;9.03;;
20181;SDS011;10250;50.756;6.172;2023-11-21T00:18:05;23.40;;;7.70;;
20181;SDS011;10250;50.756;6.172;2023-11-21T00:20:06;21.47;;;7.90;;
20181;SDS011;10250;50.756;6.172;2023-11-21T00:22:07;23.60;;;8.40;;
20181;SDS011;10250;50.756;6.172;2023-11-21T00:24:08;23.97;;;8.63;;
20181;SDS011;10250;50.756;6.172;2023-11-21T00:26:09;28.33;;;9.10;;
20181;SDS011;10250;50.756;6.172;2023-11-21T00:28:10;21.37;;;8.37;;
20181;SDS011;10250;50.756;6.172;2023-11-21T00:30:11;22.73;;;8.03;;
20181;SDS011;10250;50.756;6.172;2023-11-21T00:32:12;24.90;;;9.40;;
20181;SDS011;10250;50.756;6.172;2023-11-21T00:34:13;23.40;;;8.80;;
20181;SDS011;10250;50.756;6.172;2023-11-21T00:36:13;23.17;;;8.30;;
20181;SDS011;10250;50.756;6.172;2023-11-21T00:38:14;26.10;;;8.87;;
20181;SDS011;10250;50.756;6.172;2023-11-21T00:40:15;23.63;;;9.03;;
20181;SDS011;10250;50.756;6.172;2023-11-21T00:42:19;24.13;;;9.17;;
20181;SDS011;10250;50.756;6.172;2023-11-21T00:44:19;25.60;;;9.67;;
20181;SDS011;10250;50.756;6.172;2023-11-21T00:46:20;25.50;;;8.90;;
20181;SDS011;10250;50.756;6.172;2023-11-21T00:48:21;23.90;;;8.87;;
20181;SDS011;10250;50.756;6.172;2023-11-21T00:50:21;24.17;;;9.30;;
20181;SDS011;10250;50.756;6.172;2023-11-21T00:52:22;22.67;;;8.97;;
20181;SDS011;10250;50.756;6.172;2023-11-21T00:54:22;25.80;;;10.07;;
20181;SDS011;10250;50.756;6.172;2023-11-21T00:56:23;26.30;;;9.27;;
20181;SDS011;10250;50.756;6.172;2023-11-21T00:58:24;25.63;;;9.17;;
20181;SDS011;10250;50.756;6.172;2023-11-21T01:00:25;22.37;;;8.27;;
20181;SDS011;10250;50.756;6.172;2023-11-21T01:02:25;22.30;;;8.40;;
20181;SDS011;10250;50.756;6.172;2023-11-21T01:04:26;22.00;;;8.50;;
20181;SDS011;10250;50.756;6.172;2023-11-21T01:06:27;24.50;;;7.93;;
20181;SDS011;10250;50.756;6.172;2023-11-21T01:08:28;22.87;;;8.43;;
20181;SDS011;10250;50.756;6.172;2023-11-21T01:10:28;21.47;;;7.77;;
20181;SDS011;10250;50.756;6.172;2023-11-21T01:12:29;24.83;;;8.37;;
20181;SDS011;10250;50.756;6.172;2023-11-21T01:14:30;25.53;;;7.97;;
20181;SDS011;10250;50.756;6.172;2023-11-21T01:16:31;24.97;;;9.20;;
20181;SDS011;10250;50.756;6.172;2023-11-21T01:18:32;28.33;;;8.40;;
20181;SDS011;10250;50.756;6.172;2023-11-21T01:20:33;24.83;;;8.87;;
20181;SDS011;10250;50.756;6.172;2023-11-21T01:22:34;23.60;;;8.63;;
20181;SDS011;10250;50.756;6.172;2023-11-21T01:24:35;23.43;;;8.30;;
20181;SDS011;10250;50.756;6.172;2023-11-21T01:26:36;23.07;;;8.67;;
20181;SDS011;10250;50.756;6.172;2023-11-21T01:28:36;26.53;;;10.03;;
20181;SDS011;10250;50.756;6.172;2023-11-21T01:30:37;25.90;;;9.57;;
20181;SDS011;10250;50.756;6.172;2023-11-21T01:32:38;25.53;;;9.50;;
20181;SDS011;10250;50.756;6.172;2023-11-21T01:34:39;25.23;;;9.40;;
20181;SDS011;10250;50.756;6.172;2023-11-21T01:36:39;25.73;;;10.67;;
20181;SDS011;10250;50.756;6.172;2023-11-21T01:38:43;27.27;;;10.23;;
20181;SDS011;10250;50.756;6.172;2023-11-21T01:40:43;26.33;;;9.73;;
20181;SDS011;10250;50.756;6.172;2023-11-21T01:42:44;24.73;;;9.60;;
20181;SDS011;10250;50.756;6.172;2023-11-21T01:44:46;23.83;;;9.40;;
20181;SDS011;10250;50.756;6.172;2023-11-21T01:46:48;29.27;;;10.30;;
20181;SDS011;10250;50.756;6.172;2023-11-21T01:48:49;24.70;;;9.10;;
20181;SDS011;10250;50.756;6.172;2023-11-21T01:50:50;23.87;;;9.00;;
20181;SDS011;10250;50.756;6.172;2023-11-21T01:52:51;26.53;;;9.50;;
20181;SDS011;10250;50.756;6.172;2023-11-21T01:54:52;26.80;;;9.27;;
20181;SDS011;10250;50.756;6.172;2023-11-21T01:56:53;27.23;;;9.77;;
20181;SDS011;10250;50.756;6.172;2023-11-21T01:58:54;25.93;;;9.13;;
20181;SDS011;10250;50.756;6.172;2023-11-21T02:00:54;24.13;;;9.00;;
20181;SDS011;10250;50.756;6.172;2023-11-21T02:02:55;25.07;;;9.30;;
20181;SDS011;10250;50.756;6.172;2023-11-21T02:04:56;26.10;;;9.13;;
20181;SDS011;10250;50.756;6.172;2023-11-21T02:06:57;23.13;;;8.23;;
20181;SDS011;10250;50.756;6.172;2023-11-21T02:08:57;24.70;;;9.07;;
20181;SDS011;10250;50.756;6.172;2023-11-21T02:10:59;26.13;;;8.70;;
20181;SDS011;10250;50.756;6.172;2023-11-21T02:13:00;23.00;;;8.60;;
20181;SDS011;10250;50.756;6.172;2023-11-21T02:15:02;24.20;;;8.43;;
20181;SDS011;10250;50.756;6.172;2023-11-21T02:17:09;24.07;;;8.50;;
20181;SDS011;10250;50.756;6.172;2023-11-21T02:19:10;24.03;;;8.80;;
20181;SDS011;10250;50.756;6.172;2023-11-21T02:21:13;25.50;;;8.60;;
20181;SDS011;10250;50.756;6.172;2023-11-21T02:23:13;23.83;;;8.20;;
20181;SDS011;10250;50.756;6.172;2023-11-21T02:25:14;24.17;;;8.83;;
20181;SDS011;10250;50.756;6.172;2023-11-21T02:27:15;21.60;;;7.50;;
20181;SDS011;10250;50.756;6.172;2023-11-21T02:29:20;22.20;;;8.43;;
20181;SDS011;10250;50.756;6.172;2023-11-21T02:31:28;23.93;;;8.60;;
20181;SDS011;10250;50.756;6.172;2023-11-21T02:33:30;22.83;;;8.10;;
20181;SDS011;10250;50.756;6.172;2023-11-21T02:35:34;24.97;;;8.20;;
20181;SDS011;10250;50.756;6.172;2023-11-21T02:37:35;22.93;;;8.43;;
20181;SDS011;10250;50.756;6.172;2023-11-21T02:39:35;23.80;;;8.27;;
20181;SDS011;10250;50.756;6.172;2023-11-21T02:41:38;22.30;;;7.93;;
20181;SDS011;10250;50.756;6.172;2023-11-21T02:43:39;22.87;;;7.57;;
20181;SDS011;10250;50.756;6.172;2023-11-21T02:45:40;25.57;;;8.23;;
20181;SDS011;10250;50.756;6.172;2023-11-21T02:47:42;27.40;;;9.53;;
20181;SDS011;10250;50.756;6.172;2023-11-21T02:49:43;21.57;;;8.13;;
20181;SDS011;10250;50.756;6.172;2023-11-21T02:51:43;25.97;;;8.60;;
20181;SDS011;10250;50.756;6.172;2023-11-21T02:53:44;24.50;;;8.57;;
20181;SDS011;10250;50.756;6.172;2023-11-21T02:55:46;29.87;;;8.83;;
20181;SDS011;10250;50.756;6.172;2023-11-21T02:57:47;23.97;;;8.83;;
20181;SDS011;10250;50.756;6.172;2023-11-21T02:59:48;25.33;;;9.47;;
20181;SDS011;10250;50.756;6.172;2023-11-21T03:01:48;23.83;;;8.73;;
20181;SDS011;10250;50.756;6.172;2023-11-21T03:03:49;24.40;;;8.67;;
20181;SDS011;10250;50.756;6.172;2023-11-21T03:05:53;24.90;;;8.70;;
20181;SDS011;10250;50.756;6.172;2023-11-21T03:07:53;26.87;;;9.90;;
20181;SDS011;10250;50.756;6.172;2023-11-21T03:09:54;25.53;;;9.90;;
20181;SDS011;10250;50.756;6.172;2023-11-21T03:11:55;26.27;;;9.33;;
20181;SDS011;10250;50.756;6.172;2023-11-21T03:13:55;26.77;;;9.33;;
20181;SDS011;10250;50.756;6.172;2023-11-21T03:15:56;26.50;;;8.73;;
20181;SDS011;10250;50.756;6.172;2023-11-21T03:17:56;25.43;;;9.23;;
20181;SDS011;10250;50.756;6.172;2023-11-21T03:19:57;25.03;;;8.70;;
20181;SDS011;10250;50.756;6.172;2023-11-21T03:21:58;25.73;;;9.17;;
20181;SDS011;10250;50.756;6.172;2023-11-21T03:23:58;27.20;;;9.00;;
20181;SDS011;10250;50.756;6.172;2023-11-21T03:26:00;24.17;;;8.73;;
20181;SDS011;10250;50.756;6.172;2023-11-21T03:28:00;26.03;;;8.87;;
20181;SDS011;10250;50.756;6.172;2023-11-21T03:30:01;24.93;;;8.57;;
20181;SDS011;10250;50.756;6.172;2023-11-21T03:32:04;23.93;;;8.83;;
20181;SDS011;10250;50.756;6.172;2023-11-21T03:34:04;25.53;;;9.47;;
20181;SDS011;10250;50.756;6.172;2023-11-21T03:36:06;25.87;;;8.00;;
20181;SDS011;10250;50.756;6.172;2023-11-21T03:38:08;23.60;;;8.73;;
20181;SDS011;10250;50.756;6.172;2023-11-21T03:40:10;25.73;;;8.60;;
20181;SDS011;10250;50.756;6.172;2023-11-21T03:42:12;20.83;;;7.37;;
20181;SDS011;10250;50.756;6.172;2023-11-21T03:44:13;23.50;;;8.43;;
20181;SDS011;10250;50.756;6.172;2023-11-21T03:46:13;26.43;;;8.97;;
20181;SDS011;10250;50.756;6.172;2023-11-21T03:48:14;22.80;;;7.93;;
20181;SDS011;10250;50.756;6.172;2023-11-21T03:50:16;20.33;;;7.20;;
20181;SDS011;10250;50.756;6.172;2023-11-21T03:52:16;24.70;;;7.80;;
20181;SDS011;10250;50.756;6.172;2023-11-21T03:54:17;24.13;;;8.03;;
20181;SDS011;10250;50.756;6.172;2023-11-21T03:56:18;22.10;;;6.87;;
20181;SDS011;10250;50.756;6.172;2023-11-21T03:58:20;22.37;;;6.87;;
20181;SDS011;10250;50.756;6.172;2023-11-21T04:00:21;22.03;;;7.43;;
20181;SDS011;10250;50.756;6.172;2023-11-21T04:02:21;23.00;;;7.50;;
20181;SDS011;10250;50.756;6.172;2023-11-21T04:04:22;21.63;;;7.63;;
20181;SDS011;10250;50.756;6.172;2023-11-21T04:06:23;21.10;;;7.47;;
20181;SDS011;10250;50.756;6.172;2023-11-21T04:08:23;20.87;;;6.80;;
20181;SDS011;10250;50.756;6.172;2023-11-21T04:10:25;23.67;;;7.37;;
20181;SDS011;10250;50.756;6.172;2023-11-21T04:12:25;19.57;;;6.33;;
20181;SDS011;10250;50.756;6.172;2023-11-21T04:14:26;22.87;;;7.60;;
20181;SDS011;10250;50.756;6.172;2023-11-21T04:16:27;21.60;;;7.53;;
20181;SDS011;10250;50.756;6.172;2023-11-21T04:18:27;22.70;;;7.63;;
20181;SDS011;10250;50.756;6.172;2023-11-21T04:20:28;22.40;;;7.13;;
20181;SDS011;10250;50.756;6.172;2023-11-21T04:22:28;22.37;;;7.47;;
20181;SDS011;10250;50.756;6.172;2023-11-21T04:24:29;20.80;;;7.07;;
20181;SDS011;10250;50.756;6.172;2023-11-21T04:26:30;22.50;;;7.50;;
20181;SDS011;10250;50.756;6.172;2023-11-21T04:28:30;23.07;;;7.53;;
20181;SDS011;10250;50.756;6.172;2023-11-21T04:30:31;25.93;;;8.60;;
20181;SDS011;10250;50.756;6.172;2023-11-21T04:32:33;24.40;;;8.17;;
20181;SDS011;10250;50.756;6.172;2023-11-21T04:34:33;21.23;;;7.33;;
20181;SDS011;10250;50.756;6.172;2023-11-21T04:36:34;28.70;;;9.17;;
20181;SDS011;10250;50.756;6.172;2023-11-21T04:38:35;21.60;;;7.10;;
20181;SDS011;10250;50.756;6.172;2023-11-21T04:40:35;23.83;;;7.73;;
20181;SDS011;10250;50.756;6.172;2023-11-21T04:42:36;25.40;;;8.50;;
20181;SDS011;10250;50.756;6.172;2023-11-21T04:44:37;24.90;;;8.03;;
20181;SDS011;10250;50.756;6.172;2023-11-21T04:46:37;22.40;;;8.07;;
20181;SDS011;10250;50.756;6.172;2023-11-21T04:48:38;22.97;;;8.20;;
20181;SDS011;10250;50.756;6.172;2023-11-21T04:50:39;25.57;;;8.20;;
20181;SDS011;10250;50.756;6.172;2023-11-21T04:52:39;26.83;;;8.97;;
20181;SDS011;10250;50.756;6.172;2023-11-21T04:54:40;25.13;;;7.97;;
20181;SDS011;10250;50.756;6.172;2023-11-21T04:56:40;23.80;;;8.63;;
20181;SDS011;10250;50.756;6.172;2023-11-21T04:58:41;25.53;;;8.50;;
20181;SDS011;10250;50.756;6.172;2023-11-21T05:00:42;26.30;;;9.27;;
20181;SDS011;10250;50.756;6.172;2023-11-21T05:02:43;27.33;;;8.93;;
20181;SDS011;10250;50.756;6.172;2023-11-21T05:04:44;26.33;;;9.47;;
20181;SDS011;10250;50.756;6.172;2023-11-21T05:06:45;23.13;;;8.63;;
20181;SDS011;10250;50.756;6.172;2023-11-21T05:08:46;25.90;;;8.53;;
20181;SDS011;10250;50.756;6.172;2023-11-21T05:10:47;24.97;;;9.07;;
20181;SDS011;10250;50.756;6.172;2023-11-21T05:12:49;27.80;;;9.77;;
20181;SDS011;10250;50.756;6.172;2023-11-21T05:14:50;24.17;;;8.70;;
20181;SDS011;10250;50.756;6.172;2023-11-21T05:16:51;24.83;;;8.70;;
20181;SDS011;10250;50.756;6.172;2023-11-21T05:18:51;30.23;;;8.83;;
20181;SDS011;10250;50.756;6.172;2023-11-21T05:20:52;26.73;;;8.93;;
20181;SDS011;10250;50.756;6.172;2023-11-21T05:22:53;30.17;;;9.70;;
20181;SDS011;10250;50.756;6.172;2023-11-21T05:24:54;25.33;;;8.87;;
20181;SDS011;10250;50.756;6.172;2023-11-21T05:26:54;27.17;;;8.77;;
20181;SDS011;10250;50.756;6.172;2023-11-21T05:28:56;27.83;;;10.17;;
20181;SDS011;10250;50.756;6.172;2023-11-21T05:30:56;26.43;;;9.50;;
20181;SDS011;10250;50.756;6.172;2023-11-21T05:32:57;25.87;;;8.90;;
20181;SDS011;10250;50.756;6.172;2023-11-21T05:34:57;27.50;;;8.93;;
20181;SDS011;10250;50.756;6.172;2023-11-21T05:36:58;24.47;;;8.77;;
20181;SDS011;10250;50.756;6.172;2023-11-21T05:38:59;28.00;;;9.13;;
20181;SDS011;10250;50.756;6.172;2023-11-21T05:40:59;24.60;;;9.00;;
20181;SDS011;10250;50.756;6.172;2023-11-21T05:43:00;24.37;;;8.53;;
20181;SDS011;10250;50.756;6.172;2023-11-21T05:45:00;23.10;;;8.40;;
20181;SDS011;10250;50.756;6.172;2023-11-21T05:47:11;26.80;;;9.17;;
20181;SDS011;10250;50.756;6.172;2023-11-21T05:49:13;26.00;;;8.87;;
20181;SDS011;10250;50.756;6.172;2023-11-21T05:51:14;26.10;;;8.93;;
20181;SDS011;10250;50.756;6.172;2023-11-21T05:53:14;23.93;;;8.43;;
20181;SDS011;10250;50.756;6.172;2023-11-21T05:55:15;24.47;;;8.07;;
20181;SDS011;10250;50.756;6.172;2023-11-21T05:57:16;26.10;;;8.70;;
20181;SDS011;10250;50.756;6.172;2023-11-21T05:59:17;24.90;;;8.80;;
20181;SDS011;10250;50.756;6.172;2023-11-21T06:01:20;30.07;;;8.90;;
20181;SDS011;10250;50.756;6.172;2023-11-21T06:03:20;29.37;;;9.63;;
20181;SDS011;10250;50.756;6.172;2023-11-21T06:05:22;27.70;;;8.70;;
20181;SDS011;10250;50.756;6.172;2023-11-21T06:07:24;25.97;;;8.50;;
20181;SDS011;10250;50.756;6.172;2023-11-21T06:09:24;25.27;;;8.73;;
20181;SDS011;10250;50.756;6.172;2023-11-21T06:11:25;29.27;;;8.77;;
20181;SDS011;10250;50.756;6.172;2023-11-21T06:13:25;26.07;;;8.70;;
20181;SDS011;10250;50.756;6.172;2023-11-21T06:15:26;26.70;;;9.27;;
20181;SDS011;10250;50.756;6.172;2023-11-21T06:17:27;25.07;;;8.87;;
20181;SDS011;10250;50.756;6.172;2023-11-21T06:19:28;24.83;;;8.77;;
20181;SDS011;10250;50.756;6.172;2023-11-21T06:21:29;28.00;;;8.97;;
20181;SDS011;10250;50.756;6.172;2023-11-21T06:23:29;27.10;;;9.13;;
20181;SDS011;10250;50.756;6.172;2023-11-21T06:25:31;26.93;;;8.63;;
20181;SDS011;10250;50.756;6.172;2023-11-21T06:27:39;26.37;;;8.43;;
20181;SDS011;10250;50.756;6.172;2023-11-21T06:29:45;30.50;;;10.53;;
20181;SDS011;10250;50.756;6.172;2023-11-21T06:31:46;27.73;;;8.97;;
20181;SDS011;10250;50.756;6.172;2023-11-21T06:33:47;29.40;;;10.00;;
20181;SDS011;10250;50.756;6.172;2023-11-21T06:35:48;27.70;;;9.17;;
20181;SDS011;10250;50.756;6.172;2023-11-21T06:37:49;24.67;;;9.10;;
20181;SDS011;10250;50.756;6.172;2023-11-21T06:39:51;25.57;;;9.07;;
20181;SDS011;10250;50.756;6.172;2023-11-21T06:41:52;29.87;;;9.93;;
20181;SDS011;10250;50.756;6.172;2023-11-21T06:43:52;28.10;;;9.30;;
20181;SDS011;10250;50.756;6.172;2023-11-21T06:45:53;27.87;;;8.93;;
20181;SDS011;10250;50.756;6.172;2023-11-21T06:47:54;28.27;;;9.77;;
20181;SDS011;10250;50.756;6.172;2023-11-21T06:49:55;25.83;;;9.37;;
20181;SDS011;10250;50.756;6.172;2023-11-21T06:51:56;29.17;;;9.53;;
20181;SDS011;10250;50.756;6.172;2023-11-21T06:53:57;30.70;;;9.30;;
20181;SDS011;10250;50.756;6.172;2023-11-21T06:55:58;30.23;;;10.13;;
20181;SDS011;10250;50.756;6.172;2023-11-21T06:57:58;29.23;;;9.73;;
20181;SDS011;10250;50.756;6.172;2023-11-21T07:00:00;25.60;;;8.93;;
20181;SDS011;10250;50.756;6.172;2023-11-21T07:02:00;27.47;;;9.50;;
20181;SDS011;10250;50.756;6.172;2023-11-21T07:04:01;27.43;;;9.43;;
20181;SDS011;10250;50.756;6.172;2023-11-21T07:06:02;29.53;;;10.20;;
20181;SDS011;10250;50.756;6.172;2023-11-21T07:08:03;31.70;;;9.97;;
20181;SDS011;10250;50.756;6.172;2023-11-21T07:10:04;28.90;;;9.60;;
20181;SDS011;10250;50.756;6.172;2023-11-21T07:12:05;31.23;;;10.20;;
20181;SDS011;10250;50.756;6.172;2023-11-21T07:14:07;36.40;;;10.97;;
20181;SDS011;10250;50.756;6.172;2023-11-21T07:16:08;33.33;;;10.80;;
20181;SDS011;10250;50.756;6.172;2023-11-21T07:18:10;28.87;;;10.07;;
20181;SDS011;10250;50.756;6.172;2023-11-21T07:20:11;31.47;;;9.87;;
20181;SDS011;10250;50.756;6.172;2023-11-21T07:22:12;33.07;;;11.97;;
20181;SDS011;10250;50.756;6.172;2023-11-21T07:24:14;31.57;;;10.33;;
20181;SDS011;10250;50.756;6.172;2023-11-21T07:26:14;34.70;;;10.80;;
20181;SDS011;10250;50.756;6.172;2023-11-21T07:28:15;31.83;;;10.10;;
20181;SDS011;10250;50.756;6.172;2023-11-21T07:30:16;34.40;;;10.93;;
20181;SDS011;10250;50.756;6.172;2023-11-21T07:32:17;29.53;;;10.77;;
20181;SDS011;10250;50.756;6.172;2023-11-21T07:34:19;36.07;;;11.33;;
20181;SDS011;10250;50.756;6.172;2023-11-21T07:36:20;36.10;;;11.03;;
20181;SDS011;10250;50.756;6.172;2023-11-21T07:38:23;35.90;;;11.10;;
20181;SDS011;10250;50.756;6.172;2023-11-21T07:40:23;33.70;;;11.23;;
20181;SDS011;10250;50.756;6.172;2023-11-21T07:42:24;35.30;;;11.23;;
20181;SDS011;10250;50.756;6.172;2023-11-21T07:44:26;35.50;;;11.70;;
20181;SDS011;10250;50.756;6.172;2023-11-21T07:46:26;31.10;;;10.27;;
20181;SDS011;10250;50.756;6.172;2023-11-21T07:48:27;32.33;;;10.20;;
20181;SDS011;10250;50.756;6.172;2023-11-21T07:50:28;35.70;;;11.70;;
20181;SDS011;10250;50.756;6.172;2023-11-21T07:52:29;32.77;;;10.70;;
20181;SDS011;10250;50.756;6.172;2023-11-21T07:54:30;36.33;;;10.80;;
20181;SDS011;10250;50.756;6.172;2023-11-21T07:56:30;35.73;;;11.40;;
20181;SDS011;10250;50.756;6.172;2023-11-21T07:58:31;35.93;;;12.00;;
20181;SDS011;10250;50.756;6.172;2023-11-21T08:00:33;36.00;;;11.77;;
20181;SDS011;10250;50.756;6.172;2023-11-21T08:02:34;38.50;;;13.13;;
20181;SDS011;10250;50.756;6.172;2023-11-21T08:04:35;30.53;;;10.73;;
20181;SDS011;10250;50.756;6.172;2023-11-21T08:06:35;33.43;;;11.33;;
20181;SDS011;10250;50.756;6.172;2023-11-21T08:08:36;33.70;;;11.23;;
20181;SDS011;10250;50.756;6.172;2023-11-21T08:10:37;33.70;;;10.87;;
20181;SDS011;10250;50.756;6.172;2023-11-21T08:12:38;32.73;;;10.47;;
20181;SDS011;10250;50.756;6.172;2023-11-21T08:14:39;32.27;;;10.93;;
20181;SDS011;10250;50.756;6.172;2023-11-21T08:16:40;34.73;;;12.07;;
20181;SDS011;10250;50.756;6.172;2023-11-21T08:18:41;32.80;;;11.10;;
20181;SDS011;10250;50.756;6.172;2023-11-21T08:20:42;34.40;;;11.13;;
20181;SDS011;10250;50.756;6.172;2023-11-21T08:22:46;33.33;;;11.47;;
20181;SDS011;10250;50.756;6.172;2023-11-21T08:24:47;33.43;;;11.63;;
20181;SDS011;10250;50.756;6.172;2023-11-21T08:26:48;37.60;;;12.23;;
20181;SDS011;10250;50.756;6.172;2023-11-21T08:28:49;34.97;;;10.50;;
20181;SDS011;10250;50.756;6.172;2023-11-21T08:30:52;37.00;;;11.70;;
20181;SDS011;10250;50.756;6.172;2023-11-21T08:32:54;36.87;;;11.57;;
20181;SDS011;10250;50.756;6.172;2023-11-21T08:34:58;34.97;;;10.90;;
20181;SDS011;10250;50.756;6.172;2023-11-21T08:36:59;36.60;;;11.10;;
20181;SDS011;10250;50.756;6.172;2023-11-21T08:39:00;39.47;;;11.93;;
20181;SDS011;10250;50.756;6.172;2023-11-21T08:41:01;33.87;;;10.23;;
20181;SDS011;10250;50.756;6.172;2023-11-21T08:43:01;36.23;;;10.70;;
20181;SDS011;10250;50.756;6.172;2023-11-21T08:45:04;38.00;;;11.97;;
20181;SDS011;10250;50.756;6.172;2023-11-21T08:47:06;35.60;;;11.63;;
20181;SDS011;10250;50.756;6.172;2023-11-21T08:49:06;38.30;;;11.03;;
20181;SDS011;10250;50.756;6.172;2023-11-21T08:51:09;34.87;;;11.13;;
20181;SDS011;10250;50.756;6.172;2023-11-21T08:53:11;39.43;;;11.07;;
20181;SDS011;10250;50.756;6.172;2023-11-21T08:55:12;37.87;;;12.03;;
20181;SDS011;10250;50.756;6.172;2023-11-21T08:57:13;35.47;;;11.63;;
20181;SDS011;10250;50.756;6.172;2023-11-21T08:59:14;33.40;;;10.50;;
20181;SDS011;10250;50.756;6.172;2023-11-21T09:01:15;34.17;;;10.37;;
20181;SDS011;10250;50.756;6.172;2023-11-21T09:03:15;36.67;;;11.13;;
20181;SDS011;10250;50.756;6.172;2023-11-21T09:05:16;36.93;;;11.37;;
20181;SDS011;10250;50.756;6.172;2023-11-21T09:07:17;35.63;;;10.63;;
20181;SDS011;10250;50.756;6.172;2023-11-21T09:09:21;32.73;;;10.67;;
20181;SDS011;10250;50.756;6.172;2023-11-21T09:11:21;32.30;;;9.93;;
20181;SDS011;10250;50.756;6.172;2023-11-21T09:13:23;38.00;;;10.33;;
20181;SDS011;10250;50.756;6.172;2023-11-21T09:15:25;33.03;;;9.37;;
20181;SDS011;10250;50.756;6.172;2023-11-21T09:17:25;39.83;;;11.50;;
20181;SDS011;10250;50.756;6.172;2023-11-21T09:19:26;32.20;;;9.80;;
20181;SDS011;10250;50.756;6.172;2023-11-21T09:21:26;32.73;;;10.07;;
20181;SDS011;10250;50.756;6.172;2023-11-21T09:23:27;31.83;;;10.00;;
20181;SDS011;10250;50.756;6.172;2023-11-21T09:25:28;34.07;;;9.90;;
20181;SDS011;10250;50.756;6.172;2023-11-21T09:27:28;39.70;;;10.30;;
20181;SDS011;10250;50.756;6.172;2023-11-21T09:29:29;35.03;;;10.63;;
20181;SDS011;10250;50.756;6.172;2023-11-21T09:31:30;34.13;;;10.53;;
20181;SDS011;10250;50.756;6.172;2023-11-21T09:33:31;34.60;;;10.23;;
20181;SDS011;10250;50.756;6.172;2023-11-21T09:35:31;36.40;;;10.43;;
20181;SDS011;10250;50.756;6.172;2023-11-21T09:37:32;36.17;;;10.07;;
20181;SDS011;10250;50.756;6.172;2023-11-21T09:39:33;31.67;;;9.53;;
20181;SDS011;10250;50.756;6.172;2023-11-21T09:41:43;33.43;;;9.87;;
20181;SDS011;10250;50.756;6.172;2023-11-21T09:43:46;32.20;;;10.30;;
20181;SDS011;10250;50.756;6.172;2023-11-21T09:45:59;32.17;;;9.43;;
20181;SDS011;10250;50.756;6.172;2023-11-21T09:48:02;31.57;;;9.50;;
20181;SDS011;10250;50.756;6.172;2023-11-21T09:50:03;36.80;;;9.90;;
20181;SDS011;10250;50.756;6.172;2023-11-21T09:52:04;30.13;;;9.30;;
20181;SDS011;10250;50.756;6.172;2023-11-21T09:54:10;32.27;;;9.83;;
20181;SDS011;10250;50.756;6.172;2023-11-21T09:56:11;29.27;;;8.80;;
20181;SDS011;10250;50.756;6.172;2023-11-21T09:58:13;36.67;;;9.10;;
20181;SDS011;10250;50.756;6.172;2023-11-21T10:00:14;34.77;;;9.10;;
20181;SDS011;10250;50.756;6.172;2023-11-21T10:02:17;34.17;;;9.07;;
20181;SDS011;10250;50.756;6.172;2023-11-21T10:04:20;29.60;;;9.30;;
20181;SDS011;10250;50.756;6.172;2023-11-21T10:06:21;29.60;;;8.87;;
20181;SDS011;10250;50.756;6.172;2023-11-21T10:08:23;38.47;;;10.07;;
20181;SDS011;10250;50.756;6.172;2023-11-21T10:10:28;32.07;;;9.50;;
20181;SDS011;10250;50.756;6.172;2023-11-21T10:12:32;33.33;;;9.33;;
20181;SDS011;10250;50.756;6.172;2023-11-21T10:14:33;32.80;;;8.53;;
20181;SDS011;10250;50.756;6.172;2023-11-21T10:16:37;31.03;;;9.47;;
20181;SDS011;10250;50.756;6.172;2023-11-21T10:18:39;29.57;;;8.73;;
20181;SDS011;10250;50.756;6.172;2023-11-21T10:20:40;31.83;;;8.23;;
20181;SDS011;10250;50.756;6.172;2023-11-21T10:22:41;33.37;;;9.03;;
20181;SDS011;10250;50.756;6.172;2023-11-21T10:24:43;31.83;;;9.93;;
20181;SDS011;10250;50.756;6.172;2023-11-21T10:26:43;31.50;;;8.83;;
20181;SDS011;10250;50.756;6.172;2023-11-21T10:29:01;32.53;;;8.93;;
20181;SDS011;10250;50.756;6.172;2023-11-21T10:31:06;26.90;;;8.40;;
20181;SDS011;10250;50.756;6.172;2023-11-21T10:33:07;28.97;;;9.20;;
20181;SDS011;10250;50.756;6.172;2023-11-21T10:35:08;27.27;;;8.50;;
20181;SDS011;10250;50.756;6.172;2023-11-21T10:37:12;33.77;;;8.77;;
20181;SDS011;10250;50.756;6.172;2023-11-21T10:39:19;29.77;;;8.20;;
20181;SDS011;10250;50.756;6.172;2023-11-21T10:41:23;31.17;;;9.07;;
20181;SDS011;10250;50.756;6.172;2023-11-21T10:43:25;28.67;;;8.50;;
20181;SDS011;10250;50.756;6.172;2023-11-21T10:45:26;35.40;;;8.80;;
20181;SDS011;10250;50.756;6.172;2023-11-21T10:47:30;28.67;;;7.80;;
20181;SDS011;10250;50.756;6.172;2023-11-21T10:49:31;30.77;;;7.33;;
20181;SDS011;10250;50.756;6.172;2023-11-21T10:51:32;28.60;;;7.33;;
20181;SDS011;10250;50.756;6.172;2023-11-21T10:53:33;28.67;;;7.80;;
20181;SDS011;10250;50.756;6.172;2023-11-21T10:55:33;32.80;;;7.57;;
20181;SDS011;10250;50.756;6.172;2023-11-21T10:57:34;27.77;;;8.30;;
20181;SDS011;10250;50.756;6.172;2023-11-21T10:59:35;28.87;;;7.27;;
20181;SDS011;10250;50.756;6.172;2023-11-21T11:01:36;26.30;;;7.70;;
20181;SDS011;10250;50.756;6.172;2023-11-21T11:03:37;28.73;;;8.00;;
20181;SDS011;10250;50.756;6.172;2023-11-21T11:05:38;31.53;;;8.63;;
20181;SDS011;10250;50.756;6.172;2023-11-21T11:07:39;28.23;;;8.10;;
20181;SDS011;10250;50.756;6.172;2023-11-21T11:09:44;28.63;;;7.83;;
20181;SDS011;10250;50.756;6.172;2023-11-21T11:11:45;25.73;;;6.80;;
20181;SDS011;10250;50.756;6.172;2023-11-21T11:13:46;27.47;;;7.47;;
20181;SDS011;10250;50.756;6.172;2023-11-21T11:15:47;25.67;;;7.73;;
20181;SDS011;10250;50.756;6.172;2023-11-21T11:17:48;23.83;;;7.53;;
20181;SDS011;10250;50.756;6.172;2023-11-21T11:19:49;27.20;;;7.67;;
20181;SDS011;10250;50.756;6.172;2023-11-21T11:24:01;26.13;;;7.13;;
20181;SDS011;10250;50.756;6.172;2023-11-21T11:32:03;30.07;;;7.57;;
20181;SDS011;10250;50.756;6.172;2023-11-21T11:37:18;30.97;;;8.50;;
20181;SDS011;10250;50.756;6.172;2023-11-21T11:41:35;30.83;;;8.30;;
20181;SDS011;10250;50.756;6.172;2023-11-21T11:43:36;27.93;;;9.13;;
20181;SDS011;10250;50.756;6.172;2023-11-21T11:45:44;27.27;;;8.53;;
20181;SDS011;10250;50.756;6.172;2023-11-21T11:47:48;24.47;;;6.77;;
20181;SDS011;10250;50.756;6.172;2023-11-21T11:54:55;27.23;;;7.67;;
20181;SDS011;10250;50.756;6.172;2023-11-21T11:56:56;30.50;;;7.37;;
20181;SDS011;10250;50.756;6.172;2023-11-21T11:58:59;27.27;;;8.47;;
20181;SDS011;10250;50.756;6.172;2023-11-21T12:01:08;27.93;;;8.03;;
20181;SDS011;10250;50.756;6.172;2023-11-21T12:03:11;31.43;;;8.77;;
20181;SDS011;10250;50.756;6.172;2023-11-21T12:05:14;24.57;;;6.80;;
20181;SDS011;10250;50.756;6.172;2023-11-21T12:07:18;29.53;;;7.07;;
20181;SDS011;10250;50.756;6.172;2023-11-21T12:09:19;21.33;;;5.60;;
20181;SDS011;10250;50.756;6.172;2023-11-21T12:11:20;25.07;;;6.13;;
20181;SDS011;10250;50.756;6.172;2023-11-21T12:13:20;21.57;;;6.17;;
20181;SDS011;10250;50.756;6.172;2023-11-21T12:15:23;26.73;;;6.00;;
20181;SDS011;10250;50.756;6.172;2023-11-21T12:17:25;21.67;;;5.47;;